Time;durP1;ratioP1;P1;durP2;ratioP2;P2;SDS_P1;SDS_P2;PMS_P1;PMS_P2;Temp;Humidity;BMP_temperature;BMP_pressure;BME280_temperature;BME280_humidity;BME280_pressure;Samples;Min_cycle;Max_cycle;Signal;HPM_P1;HPM_P2
2021/10/01 00:01:40;;;;;;;5.90;1.57;;;10.90;1.00;;;;;;5013478;28;20231;-65
2021/10/01 00:04:07;;;;;;;3.23;1.40;;;10.90;1.00;;;;;;5013307;28;20207;-64
2021/10/01 00:06:33;;;;;;;5.70;1.67;;;10.90;1.00;;;;;;5012967;28;20214;-64
2021/10/01 00:09:00;;;;;;;8.37;1.80;;;10.90;1.00;;;;;;5013166;28;20232;-65
2021/10/01 00:11:27;;;;;;;5.30;1.63;;;11.00;1.00;;;;;;5013086;28;20230;-64
2021/10/01 00:13:53;;;;;;;7.93;1.77;;;10.90;1.00;;;;;;5012692;28;20210;-64
2021/10/01 00:16:21;;;;;;;3.17;1.33;;;10.90;1.00;;;;;;5012826;28;20206;-64
2021/10/01 00:18:48;;;;;;;7.57;1.50;;;10.90;1.00;;;;;;5013183;28;20223;-64
2021/10/01 00:21:15;;;;;;;3.60;1.30;;;10.90;1.00;;;;;;5012746;28;20345;-64
2021/10/01 00:23:42;;;;;;;5.13;1.67;;;10.90;1.00;;;;;;5013073;28;20207;-64
2021/10/01 00:26:09;;;;;;;5.73;1.83;;;10.90;1.00;;;;;;5012464;28;20302;-64
2021/10/01 00:28:36;;;;;;;6.40;1.50;;;10.90;1.00;;;;;;5012557;28;20285;-64
2021/10/01 00:31:03;;;;;;;4.13;1.40;;;10.90;1.00;;;;;;5012891;28;20253;-64
2021/10/01 00:33:31;;;;;;;3.67;1.33;;;10.90;1.00;;;;;;5012767;28;20257;-64
2021/10/01 00:35:59;;;;;;;5.87;1.43;;;10.90;1.00;;;;;;5012295;28;20210;-64
2021/10/01 00:38:26;;;;;;;4.27;1.50;;;10.90;1.00;;;;;;5012572;28;20230;-64
2021/10/01 00:40:53;;;;;;;5.73;1.43;;;10.80;1.00;;;;;;5012557;28;20211;-65
2021/10/01 00:43:20;;;;;;;4.20;1.67;;;10.80;1.00;;;;;;5012528;28;20215;-64
2021/10/01 00:45:46;;;;;;;7.23;1.63;;;10.80;1.00;;;;;;5012327;28;20214;-64
2021/10/01 00:48:13;;;;;;;3.13;1.10;;;10.80;1.00;;;;;;5012052;28;20235;-64
2021/10/01 00:50:41;;;;;;;5.10;1.20;;;10.80;1.00;;;;;;5012394;28;20692;-64
2021/10/01 00:53:08;;;;;;;4.07;1.27;;;10.70;1.00;;;;;;5012278;28;20222;-64
2021/10/01 00:55:35;;;;;;;2.83;1.10;;;10.70;1.00;;;;;;5012038;28;20207;-64
2021/10/01 00:58:02;;;;;;;4.93;1.33;;;10.70;1.00;;;;;;5012609;28;20310;-65
2021/10/01 01:00:29;;;;;;;3.13;1.30;;;10.70;1.00;;;;;;5012193;28;20218;-64
2021/10/01 01:02:58;;;;;;;2.03;1.23;;;10.70;1.00;;;;;;5012341;28;20202;-64
2021/10/01 01:05:32;;;;;;;2.70;1.43;;;10.70;1.00;;;;;;5011936;28;20215;-64
2021/10/01 01:08:07;;;;;;;3.93;1.43;;;10.70;1.00;;;;;;5012116;28;20237;-64
2021/10/01 01:10:41;;;;;;;2.87;1.20;;;10.70;1.00;;;;;;5012152;28;20209;-64
2021/10/01 01:13:14;;;;;;;4.83;1.50;;;10.80;1.00;;;;;;5012250;28;20252;-64
2021/10/01 01:15:45;;;;;;;4.67;1.40;;;10.70;1.00;;;;;;5011854;28;20644;-64
2021/10/01 01:18:14;;;;;;;7.03;1.57;;;10.70;1.00;;;;;;5012104;28;20234;-64
2021/10/01 01:20:48;;;;;;;10.93;1.93;;;10.70;1.00;;;;;;5011945;28;20633;-64
2021/10/01 01:23:31;;;;;;;2.30;1.23;;;10.70;1.00;;;;;;5012402;28;20203;-64
2021/10/01 01:26:07;;;;;;;4.77;1.70;;;10.70;1.00;;;;;;5011891;28;20217;-64
2021/10/01 01:28:42;;;;;;;4.20;1.30;;;10.70;1.00;;;;;;5011952;28;20230;-64
2021/10/01 01:31:19;;;;;;;3.57;1.20;;;10.70;1.00;;;;;;5012014;28;20830;-64
2021/10/01 01:33:49;;;;;;;4.73;1.30;;;10.70;1.00;;;;;;5012137;28;20207;-64
2021/10/01 01:36:17;;;;;;;3.50;1.40;;;10.70;1.00;;;;;;5011646;28;20214;-64
2021/10/01 01:38:50;;;;;;;4.10;1.40;;;10.60;1.00;;;;;;5011507;28;20277;-64
2021/10/01 01:41:18;;;;;;;3.90;1.60;;;10.60;1.00;;;;;;5012059;28;20211;-64
2021/10/01 01:43:46;;;;;;;3.50;1.10;;;10.60;1.00;;;;;;5011911;28;20211;-64
2021/10/01 01:46:13;;;;;;;3.47;1.43;;;10.60;1.00;;;;;;5011832;28;20211;-64
2021/10/01 01:48:41;;;;;;;4.00;1.30;;;10.60;1.00;;;;;;5011882;28;20235;-64
2021/10/01 01:51:10;;;;;;;2.30;1.30;;;10.50;1.00;;;;;;5011772;28;20210;-64
2021/10/01 01:53:39;;;;;;;5.33;1.20;;;10.50;1.00;;;;;;5011989;28;20211;-64
2021/10/01 01:56:07;;;;;;;4.27;1.10;;;10.50;1.00;;;;;;5011289;28;20203;-65
2021/10/01 01:58:35;;;;;;;4.43;1.37;;;10.50;1.00;;;;;;5011735;28;20231;-65
2021/10/01 02:01:03;;;;;;;3.17;1.40;;;10.50;1.00;;;;;;5014208;28;20213;-64
2021/10/01 02:03:31;;;;;;;5.67;1.67;;;10.50;1.00;;;;;;5015668;28;20667;-64
2021/10/01 02:05:59;;;;;;;2.10;1.10;;;10.50;1.00;;;;;;5015072;28;20577;-64
2021/10/01 02:08:27;;;;;;;2.50;1.07;;;10.50;1.00;;;;;;5015109;28;20722;-65
2021/10/01 02:10:55;;;;;;;4.40;1.83;;;10.50;1.00;;;;;;5015292;28;20279;-64
2021/10/01 02:13:23;;;;;;;2.87;0.97;;;10.60;1.00;;;;;;5015272;28;20277;-64
2021/10/01 02:15:52;;;;;;;4.60;1.07;;;10.60;1.00;;;;;;5014826;28;20610;-64
2021/10/01 02:18:22;;;;;;;5.47;1.37;;;10.60;1.00;;;;;;5015298;28;20705;-64
2021/10/01 02:20:51;;;;;;;2.70;1.30;;;10.60;1.00;;;;;;5015067;28;20264;-64
2021/10/01 02:23:18;;;;;;;3.17;1.20;;;10.60;1.00;;;;;;5015264;28;20210;-65
2021/10/01 02:28:35;;;;;;;2.87;0.97;;;10.60;1.00;;;;;;5014918;28;20229;-64
2021/10/01 02:31:04;;;;;;;3.60;1.10;;;10.50;1.00;;;;;;5014842;28;20206;-64
2021/10/01 02:33:37;;;;;;;3.10;1.10;;;10.50;1.00;;;;;;5014684;28;20227;-64
2021/10/01 02:36:04;;;;;;;3.23;1.20;;;10.50;1.00;;;;;;5014550;28;20582;-64
2021/10/01 02:38:31;;;;;;;6.13;1.43;;;10.50;1.00;;;;;;5014810;28;20301;-64
2021/10/01 02:40:59;;;;;;;4.93;1.00;;;10.50;1.00;;;;;;5014823;28;20264;-65
2021/10/01 02:43:26;;;;;;;3.40;1.10;;;10.50;1.00;;;;;;5014775;28;20211;-64
2021/10/01 02:45:53;;;;;;;2.47;1.10;;;10.50;1.00;;;;;;5014202;28;20207;-64
2021/10/01 02:48:20;;;;;;;3.10;1.10;;;10.50;1.00;;;;;;5014590;28;20289;-64
2021/10/01 02:50:51;;;;;;;4.10;1.00;;;10.50;1.00;;;;;;5014867;28;20261;-64
2021/10/01 02:53:23;;;;;;;3.27;1.10;;;10.50;1.00;;;;;;5014786;28;20313;-64
2021/10/01 02:55:55;;;;;;;2.20;1.20;;;10.50;1.00;;;;;;5014201;28;20211;-64
2021/10/01 02:58:27;;;;;;;4.23;1.07;;;10.50;1.00;;;;;;5014369;28;20234;-65
2021/10/01 03:00:54;;;;;;;3.57;1.10;;;10.50;1.00;;;;;;5014262;28;20253;-64
2021/10/01 03:03:24;;;;;;;3.07;1.17;;;10.50;1.00;;;;;;5014376;28;20253;-64
2021/10/01 03:05:53;;;;;;;4.97;1.30;;;10.50;1.00;;;;;;5013984;28;20210;-64
2021/10/01 03:08:20;;;;;;;4.17;1.10;;;10.50;1.00;;;;;;5014105;28;20231;-64
2021/10/01 03:10:49;;;;;;;5.63;1.20;;;10.50;1.00;;;;;;5013857;28;20584;-65
2021/10/01 03:13:19;;;;;;;2.73;1.10;;;10.50;1.00;;;;;;5014380;28;20234;-65
2021/10/01 03:15:48;;;;;;;3.93;1.23;;;10.40;1.00;;;;;;5013916;28;20209;-65
2021/10/01 03:18:15;;;;;;;8.20;1.40;;;10.40;1.00;;;;;;5014083;28;20230;-65
2021/10/01 03:20:42;;;;;;;3.13;1.00;;;10.40;1.00;;;;;;5013906;28;20205;-65
2021/10/01 03:23:10;;;;;;;2.20;1.00;;;10.30;1.00;;;;;;5013989;28;20205;-65
2021/10/01 03:25:38;;;;;;;3.97;1.00;;;10.30;1.00;;;;;;5013478;28;20211;-65
2021/10/01 03:28:06;;;;;;;5.63;1.07;;;10.30;1.00;;;;;;5014449;28;20337;-64
2021/10/01 03:30:33;;;;;;;2.77;1.10;;;10.30;1.00;;;;;;5014070;28;20207;-64
2021/10/01 03:33:01;;;;;;;6.87;1.40;;;10.30;1.00;;;;;;5014386;28;20231;-64
2021/10/01 03:35:29;;;;;;;3.33;1.40;;;10.20;1.00;;;;;;5013476;28;20203;-64
2021/10/01 03:37:57;;;;;;;3.90;1.30;;;10.20;1.00;;;;;;5013428;28;20226;-65
2021/10/01 03:40:23;;;;;;;3.33;1.23;;;10.20;1.00;;;;;;5013723;28;20624;-64
2021/10/01 03:42:50;;;;;;;3.40;1.50;;;10.20;1.00;;;;;;5013458;28;20609;-64
2021/10/01 03:45:17;;;;;;;3.70;1.03;;;10.20;1.00;;;;;;5013451;28;20211;-65
2021/10/01 03:47:43;;;;;;;3.83;1.33;;;10.10;1.00;;;;;;5013339;28;20211;-65
2021/10/01 03:50:11;;;;;;;6.00;1.20;;;10.10;1.00;;;;;;5013675;28;20211;-65
2021/10/01 03:52:38;;;;;;;3.37;1.00;;;10.10;1.00;;;;;;5013191;28;20233;-65
2021/10/01 03:55:07;;;;;;;3.97;1.23;;;10.10;1.00;;;;;;5013374;28;20242;-64
2021/10/01 03:57:34;;;;;;;6.23;1.50;;;10.10;1.00;;;;;;5013847;28;20217;-64
2021/10/01 04:00:00;;;;;;;3.83;1.67;;;10.10;1.00;;;;;;5013064;28;20757;-65
2021/10/01 04:02:27;;;;;;;5.00;1.20;;;10.10;1.00;;;;;;5013100;28;20615;-64
2021/10/01 04:04:54;;;;;;;3.70;1.30;;;10.10;1.00;;;;;;5012714;28;20211;-64
2021/10/01 04:07:22;;;;;;;3.77;1.20;;;10.00;1.00;;;;;;5013079;28;20269;-64
2021/10/01 04:09:48;;;;;;;3.33;1.20;;;10.00;1.00;;;;;;5005232;28;20281;-65
2021/10/01 04:12:15;;;;;;;7.23;1.40;;;9.90;1.00;;;;;;5013032;28;20222;-64
2021/10/01 04:14:42;;;;;;;6.57;1.20;;;9.90;1.00;;;;;;5012851;28;20215;-64
2021/10/01 04:17:09;;;;;;;2.73;1.10;;;9.90;1.00;;;;;;5012867;28;20213;-64
2021/10/01 04:19:35;;;;;;;3.30;1.10;;;9.90;1.00;;;;;;5010320;28;20230;-64
2021/10/01 04:22:02;;;;;;;5.03;1.37;;;9.90;1.00;;;;;;5010271;28;20202;-64
2021/10/01 04:24:30;;;;;;;2.13;1.00;;;9.90;1.00;;;;;;5011792;28;20264;-64
2021/10/01 04:26:57;;;;;;;5.43;1.13;;;9.90;1.00;;;;;;5008495;28;20205;-65
2021/10/01 04:29:24;;;;;;;4.30;1.37;;;9.90;1.00;;;;;;5012591;28;20226;-65
2021/10/01 04:31:50;;;;;;;4.93;1.43;;;10.00;1.00;;;;;;5012396;28;20215;-65
2021/10/01 04:34:17;;;;;;;4.97;1.10;;;10.00;1.00;;;;;;5012256;28;20231;-65
2021/10/01 04:36:44;;;;;;;4.50;1.33;;;10.00;1.00;;;;;;5012409;28;20218;-65
2021/10/01 04:39:11;;;;;;;3.83;1.10;;;10.00;1.00;;;;;;5012126;28;20715;-65
2021/10/01 04:41:41;;;;;;;5.30;1.00;;;10.00;1.00;;;;;;5012283;28;20218;-65
2021/10/01 04:44:07;;;;;;;5.77;1.40;;;10.00;1.00;;;;;;5012410;28;20214;-65
2021/10/01 04:46:34;;;;;;;2.50;1.30;;;10.00;1.00;;;;;;5007774;28;20611;-65
2021/10/01 04:49:01;;;;;;;2.07;1.10;;;10.00;1.00;;;;;;5011526;28;20289;-65
2021/10/01 04:51:28;;;;;;;1.77;1.03;;;10.00;1.00;;;;;;5012171;28;20203;-65
2021/10/01 04:53:55;;;;;;;4.63;1.10;;;10.00;1.00;;;;;;5012107;28;20286;-65
2021/10/01 04:56:22;;;;;;;4.77;1.47;;;10.00;1.00;;;;;;5011902;28;20207;-65
2021/10/01 04:58:50;;;;;;;2.33;1.20;;;10.00;1.00;;;;;;5011966;28;20769;-65
2021/10/01 05:01:17;;;;;;;5.50;1.33;;;10.00;1.00;;;;;;5011766;28;20217;-65
2021/10/01 05:03:43;;;;;;;3.10;1.50;;;10.00;1.00;;;;;;5011944;28;20265;-65
2021/10/01 05:06:10;;;;;;;3.13;1.27;;;10.00;1.00;;;;;;5011951;28;20408;-65
2021/10/01 05:08:37;;;;;;;3.80;1.43;;;10.00;1.00;;;;;;5012294;28;20230;-65
2021/10/01 05:11:04;;;;;;;4.30;1.30;;;10.00;1.00;;;;;;5011870;28;20268;-65
2021/10/01 05:13:30;;;;;;;2.87;1.03;;;10.00;1.00;;;;;;5011795;28;20229;-65
2021/10/01 05:15:59;;;;;;;5.63;1.20;;;10.00;1.00;;;;;;5011636;28;20633;-65
2021/10/01 05:18:26;;;;;;;2.70;1.23;;;10.10;1.00;;;;;;5011948;28;20226;-65
2021/10/01 05:20:52;;;;;;;2.33;1.00;;;10.10;1.00;;;;;;5011943;28;20698;-65
2021/10/01 05:23:19;;;;;;;3.40;1.00;;;10.20;1.00;;;;;;5012096;28;20627;-65
2021/10/01 05:25:46;;;;;;;2.47;1.30;;;10.20;1.00;;;;;;5010736;28;20207;-68
2021/10/01 05:28:13;;;;;;;2.43;1.10;;;10.20;1.00;;;;;;5006239;28;20300;-63
2021/10/01 05:30:40;;;;;;;4.00;1.23;;;10.20;1.00;;;;;;5010645;28;20221;-63
2021/10/01 05:33:10;;;;;;;3.80;1.00;;;10.10;1.00;;;;;;5011698;28;20230;-65
2021/10/01 05:35:37;;;;;;;5.17;1.30;;;10.10;1.00;;;;;;5015065;28;20211;-63
2021/10/01 05:38:04;;;;;;;5.20;1.57;;;10.10;1.00;;;;;;5015688;28;20650;-63
2021/10/01 05:40:31;;;;;;;5.27;1.20;;;10.10;1.00;;;;;;5015403;28;20215;-63
2021/10/01 05:42:58;;;;;;;2.27;1.30;;;10.10;1.00;;;;;;5015387;28;20304;-63
2021/10/01 05:45:24;;;;;;;3.97;1.10;;;10.10;1.00;;;;;;5015046;28;20214;-64
2021/10/01 05:47:51;;;;;;;1.63;0.97;;;10.10;1.00;;;;;;5015349;28;20284;-65
2021/10/01 05:50:22;;;;;;;2.47;1.17;;;10.10;1.00;;;;;;5015361;28;20227;-65
2021/10/01 05:52:58;;;;;;;2.30;0.90;;;10.10;1.00;;;;;;5014969;28;20260;-65
2021/10/01 05:55:25;;;;;;;2.23;1.00;;;10.10;1.00;;;;;;5014120;28;20211;-65
2021/10/01 05:57:51;;;;;;;5.77;1.20;;;10.20;1.00;;;;;;5014851;28;20231;-64
2021/10/01 06:00:19;;;;;;;4.93;1.47;;;10.10;1.00;;;;;;5014542;28;20226;-64
2021/10/01 06:02:46;;;;;;;2.33;1.23;;;10.20;1.00;;;;;;5014951;28;20203;-63
2021/10/01 06:05:14;;;;;;;2.37;1.20;;;10.20;1.00;;;;;;5014704;28;20621;-65
2021/10/01 06:07:43;;;;;;;1.90;1.13;;;10.30;1.00;;;;;;5014945;28;20217;-66
2021/10/01 06:10:11;;;;;;;3.70;1.00;;;10.30;1.00;;;;;;5014357;28;20211;-67
2021/10/01 06:12:39;;;;;;;3.60;1.07;;;10.30;1.00;;;;;;5014830;28;20217;-66
2021/10/01 06:15:07;;;;;;;4.17;1.00;;;10.30;1.00;;;;;;5014551;28;20207;-65
2021/10/01 06:17:34;;;;;;;1.80;0.87;;;10.40;1.00;;;;;;5014698;28;20213;-67
2021/10/01 06:20:03;;;;;;;2.27;0.90;;;10.40;1.00;;;;;;5014553;28;20214;-64
2021/10/01 06:22:30;;;;;;;4.63;1.50;;;10.40;1.00;;;;;;5014587;28;20305;-64
2021/10/01 06:24:58;;;;;;;2.13;1.00;;;10.50;1.00;;;;;;5014180;28;20295;-68
2021/10/01 06:27:25;;;;;;;1.63;1.00;;;10.60;1.00;;;;;;5014457;28;20617;-65
2021/10/01 06:29:54;;;;;;;2.10;1.20;;;10.70;1.00;;;;;;5014101;28;20292;-65
2021/10/01 06:32:21;;;;;;;3.10;1.20;;;10.70;1.00;;;;;;5014437;28;20242;-66
2021/10/01 06:34:48;;;;;;;4.10;1.17;;;10.80;1.00;;;;;;5013823;28;20239;-66
2021/10/01 06:37:16;;;;;;;2.67;1.10;;;10.80;1.00;;;;;;5013197;28;20207;-66
2021/10/01 06:39:43;;;;;;;5.30;1.10;;;10.90;1.00;;;;;;5014247;28;20235;-64
2021/10/01 06:42:13;;;;;;;3.30;1.00;;;11.00;1.00;;;;;;5014551;28;20211;-65
2021/10/01 06:44:42;;;;;;;2.77;1.00;;;11.00;1.00;;;;;;5014050;28;20207;-65
2021/10/01 06:47:12;;;;;;;3.13;1.10;;;11.10;1.00;;;;;;5013536;28;20215;-64
2021/10/01 06:49:45;;;;;;;6.13;1.50;;;11.20;1.00;;;;;;5061596;23;20230;-65
2021/10/01 07:45:03;;;;;;;2.53;1.30;;;12.40;1.00;;;;;;5010397;28;20274;-65
2021/10/01 08:20:30;;;;;;;1.87;0.90;;;13.70;99.90;;;;;;5032009;28;20205;-62
2021/10/01 08:22:57;;;;;;;1.90;0.80;;;13.80;99.90;;;;;;5032127;28;20217;-62
2021/10/01 08:25:23;;;;;;;4.07;1.20;;;14.00;99.90;;;;;;5031853;28;20267;-62
2021/10/01 08:27:50;;;;;;;3.53;0.93;;;14.10;99.90;;;;;;5031829;28;20230;-63
2021/10/01 08:30:17;;;;;;;1.87;1.07;;;14.10;99.90;;;;;;5032327;28;20554;-61
2021/10/01 08:32:43;;;;;;;2.97;1.10;;;14.20;99.90;;;;;;5032223;28;20214;-63
2021/10/01 08:35:12;;;;;;;1.47;1.07;;;14.40;99.90;;;;;;5031852;28;20622;-59
2021/10/01 08:37:40;;;;;;;3.27;0.93;;;14.40;99.90;;;;;;5031894;28;20214;-61
2021/10/01 08:40:08;;;;;;;5.33;1.30;;;14.50;99.90;;;;;;5032048;28;20629;-61
2021/10/01 08:42:35;;;;;;;1.60;1.00;;;14.60;99.90;;;;;;5032518;28;20210;-62
2021/10/01 08:45:02;;;;;;;4.13;1.07;;;14.70;99.90;;;;;;5031925;28;20256;-62
2021/10/01 08:47:29;;;;;;;3.03;1.20;;;14.90;99.90;;;;;;5032190;28;20662;-62
2021/10/01 08:50:01;;;;;;;4.77;1.30;;;14.90;99.90;;;;;;5031444;28;20217;-67
2021/10/01 08:52:28;;;;;;;3.30;0.60;;;15.00;99.90;;;;;;5031534;28;20225;-64
2021/10/01 08:54:56;;;;;;;2.17;0.97;;;15.00;99.90;;;;;;5030213;28;20226;-65
2021/10/01 08:57:23;;;;;;;2.57;1.07;;;15.10;99.90;;;;;;5031606;28;20675;-64
2021/10/01 08:59:50;;;;;;;3.27;1.07;;;15.10;99.90;;;;;;5030896;28;20714;-65
2021/10/01 09:02:17;;;;;;;2.83;1.10;;;15.10;99.90;;;;;;5031440;28;20228;-63
2021/10/01 09:04:44;;;;;;;2.30;1.00;;;15.20;99.90;;;;;;5030967;28;20210;-65
2021/10/01 09:07:10;;;;;;;3.30;1.00;;;15.30;99.90;;;;;;5031069;28;20210;-66
2021/10/01 09:09:40;;;;;;;4.07;1.00;;;15.30;99.90;;;;;;5030951;28;20233;-63
2021/10/01 09:12:09;;;;;;;5.20;2.87;;;15.40;99.90;;;;;;5031421;28;20212;-61
2021/10/01 09:14:44;;;;;;;5.97;1.13;;;15.50;99.90;;;;;;5030863;28;20243;-65
2021/10/01 09:17:13;;;;;;;5.17;1.00;;;15.60;99.90;;;;;;5032017;28;20639;-67
2021/10/01 09:19:41;;;;;;;5.53;1.30;;;15.60;99.90;;;;;;5030935;28;20234;-65
2021/10/01 09:22:07;;;;;;;3.27;0.70;;;15.60;99.90;;;;;;5031204;28;20264;-65
2021/10/01 09:24:41;;;;;;;1.83;0.70;;;15.70;99.90;;;;;;5030861;28;20207;-62
2021/10/01 09:27:10;;;;;;;2.80;0.87;;;15.80;99.90;;;;;;5031327;28;20233;-63
2021/10/01 09:29:38;;;;;;;4.20;1.17;;;15.90;99.90;;;;;;5030732;28;20226;-62
2021/10/01 09:32:11;;;;;;;5.23;1.00;;;15.90;99.90;;;;;;5031005;28;20260;-63
2021/10/01 09:34:40;;;;;;;3.20;0.77;;;16.00;99.90;;;;;;5030699;28;20566;-62
2021/10/01 09:37:09;;;;;;;2.53;1.00;;;16.00;99.90;;;;;;5031401;28;20210;-62
2021/10/01 09:39:38;;;;;;;2.80;0.80;;;16.10;99.90;;;;;;5031151;28;20237;-62
2021/10/01 09:42:16;;;;;;;4.10;0.83;;;16.30;99.90;;;;;;5031179;28;20682;-64
2021/10/01 09:44:45;;;;;;;3.27;0.73;;;16.40;99.90;;;;;;5030691;28;20313;-64
2021/10/01 09:47:12;;;;;;;4.13;0.80;;;16.50;99.90;;;;;;5031267;28;20210;-65
2021/10/01 09:49:39;;;;;;;3.97;0.80;;;16.80;99.90;;;;;;5031580;28;20234;-66
2021/10/01 09:52:07;;;;;;;8.83;1.00;;;16.80;99.90;;;;;;5032911;28;20210;-66
2021/10/01 09:54:38;;;;;;;1.40;0.70;;;16.90;99.90;;;;;;5032131;28;20780;-65
2021/10/01 09:57:07;;;;;;;1.80;0.80;;;17.10;99.90;;;;;;5032496;28;20217;-66
2021/10/01 09:59:37;;;;;;;2.03;0.80;;;17.10;99.90;;;;;;5030312;28;20710;-66
2021/10/01 10:02:07;;;;;;;3.37;0.87;;;17.20;99.90;;;;;;5031199;28;20280;-66
2021/10/01 10:04:37;;;;;;;2.43;0.70;;;17.40;99.90;;;;;;5030629;28;20294;-66
2021/10/01 10:07:18;;;;;;;5.90;0.80;;;17.40;99.90;;;;;;5031078;28;20210;-66
2021/10/01 10:09:48;;;;;;;4.67;0.90;;;17.20;99.90;;;;;;5030401;28;20236;-63
2021/10/01 10:12:18;;;;;;;2.77;0.83;;;17.10;99.90;;;;;;5030935;28;20206;-63
2021/10/01 10:14:49;;;;;;;2.23;0.67;;;17.10;99.90;;;;;;5030139;28;20226;-62
2021/10/01 10:17:17;;;;;;;3.93;0.97;;;17.10;99.90;;;;;;5030941;28;20206;-63
2021/10/01 10:19:44;;;;;;;2.43;0.97;;;17.20;99.90;;;;;;5030825;28;20234;-64
2021/10/01 10:22:11;;;;;;;2.60;0.90;;;17.30;99.90;;;;;;5033464;28;20207;-62
2021/10/01 10:24:39;;;;;;;2.57;0.70;;;17.50;99.90;;;;;;5034098;28;20603;-62
2021/10/01 10:27:06;;;;;;;4.63;1.00;;;17.50;99.90;;;;;;5034512;28;20226;-63
2021/10/01 10:29:33;;;;;;;3.33;0.70;;;17.50;99.90;;;;;;5033654;28;20230;-62
2021/10/01 10:32:02;;;;;;;3.73;1.00;;;17.40;99.90;;;;;;5034192;28;20302;-60
2021/10/01 10:34:30;;;;;;;2.00;0.83;;;17.50;99.90;;;;;;5034174;28;20222;-60
2021/10/01 10:37:06;;;;;;;2.87;1.10;;;17.80;99.90;;;;;;5033887;28;20221;-60
2021/10/01 10:39:42;;;;;;;2.90;0.90;;;17.90;99.90;;;;;;5034084;28;20237;-61
2021/10/01 10:42:12;;;;;;;6.37;1.20;;;17.80;99.90;;;;;;5034420;28;20205;-62
2021/10/01 10:44:42;;;;;;;2.00;0.63;;;17.70;99.90;;;;;;5034233;28;20206;-62
2021/10/01 10:47:11;;;;;;;2.60;0.80;;;17.70;99.90;;;;;;5033995;28;20206;-64
2021/10/01 10:49:38;;;;;;;2.73;0.77;;;17.80;99.90;;;;;;5033829;28;20238;-64
2021/10/01 10:52:08;;;;;;;2.20;0.80;;;17.90;99.90;;;;;;5034014;28;20699;-64
2021/10/01 10:54:36;;;;;;;2.17;0.80;;;17.90;99.90;;;;;;5033766;28;20222;-64
2021/10/01 10:57:30;;;;;;;3.23;0.70;;;17.90;99.90;;;;;;5033995;28;20211;-65
2021/10/01 11:00:02;;;;;;;2.43;0.57;;;17.90;99.90;;;;;;5024365;28;20300;-62
2021/10/01 11:02:35;;;;;;;3.63;0.83;;;17.90;99.90;;;;;;5014043;28;20211;-61
2021/10/01 11:05:19;;;;;;;2.83;0.77;;;17.90;99.90;;;;;;5013615;28;20207;-61
2021/10/01 11:07:49;;;;;;;5.70;0.97;;;17.80;99.90;;;;;;5013876;28;20688;-62
2021/10/01 11:10:39;;;;;;;6.40;1.00;;;17.80;99.90;;;;;;5013194;28;20203;-65
2021/10/01 11:13:28;;;;;;;5.17;0.97;;;17.80;99.90;;;;;;5013930;28;20244;-65
2021/10/01 11:16:18;;;;;;;5.30;1.00;;;17.80;99.90;;;;;;5013056;28;20230;-65
2021/10/01 11:19:01;;;;;;;2.97;0.80;;;17.80;99.90;;;;;;5012966;28;20259;-65
2021/10/01 11:21:36;;;;;;;2.80;0.70;;;17.60;99.90;;;;;;5029722;28;20217;-65
2021/10/01 11:24:07;;;;;;;1.87;0.97;;;17.50;99.90;;;;;;5033585;28;20202;-65
2021/10/01 11:26:36;;;;;;;2.63;0.80;;;17.40;99.90;;;;;;5032642;28;20206;-65
2021/10/01 11:29:04;;;;;;;1.47;0.70;;;17.20;99.90;;;;;;5032549;28;20762;-64
2021/10/01 11:31:39;;;;;;;1.33;0.50;;;17.10;99.90;;;;;;5033080;28;20260;-65
2021/10/01 11:34:08;;;;;;;1.83;0.67;;;17.00;99.90;;;;;;5033229;28;20237;-64
2021/10/01 11:36:36;;;;;;;2.33;0.70;;;17.20;99.90;;;;;;5032620;28;20214;-65
2021/10/01 11:39:05;;;;;;;2.03;0.77;;;17.30;99.90;;;;;;5032681;28;20238;-64
2021/10/01 11:41:33;;;;;;;2.50;0.70;;;17.60;99.90;;;;;;5032752;28;20209;-66
2021/10/01 11:44:02;;;;;;;4.07;0.80;;;17.80;99.90;;;;;;5033251;28;20213;-66
2021/10/01 11:46:37;;;;;;;2.20;0.70;;;17.90;99.90;;;;;;5032146;28;20285;-66
2021/10/01 11:49:14;;;;;;;2.77;0.80;;;17.90;99.90;;;;;;5032488;28;20744;-66
2021/10/01 11:51:40;;;;;;;2.30;0.60;;;17.90;99.90;;;;;;5032725;28;20210;-67
2021/10/01 11:54:13;;;;;;;1.73;0.80;;;18.00;99.90;;;;;;5032580;28;20210;-66
2021/10/01 11:56:42;;;;;;;5.13;0.70;;;17.90;99.90;;;;;;5032240;28;20587;-67
2021/10/01 11:59:08;;;;;;;3.67;0.73;;;17.80;99.90;;;;;;5032334;28;20272;-68
2021/10/01 12:01:35;;;;;;;3.57;0.80;;;17.80;99.90;;;;;;5032482;28;20221;-65
2021/10/01 12:04:03;;;;;;;4.70;1.00;;;18.00;99.90;;;;;;5032398;28;20206;-64
2021/10/01 12:06:35;;;;;;;2.70;0.70;;;18.10;99.90;;;;;;5031794;28;20256;-64
2021/10/01 12:09:05;;;;;;;2.47;0.70;;;18.00;99.90;;;;;;5032043;28;20734;-65
2021/10/01 12:11:34;;;;;;;2.93;1.00;;;17.90;99.90;;;;;;5032875;28;20219;-63
2021/10/01 12:14:11;;;;;;;4.10;0.80;;;18.10;99.90;;;;;;5032472;28;20224;-63
2021/10/01 12:16:39;;;;;;;3.20;0.87;;;18.10;99.90;;;;;;5031938;28;20264;-64
2021/10/01 12:19:06;;;;;;;2.23;0.70;;;18.20;99.90;;;;;;5032162;28;20236;-64
2021/10/01 12:21:36;;;;;;;3.17;0.80;;;18.30;99.90;;;;;;5032009;28;20694;-63
2021/10/01 12:24:09;;;;;;;2.13;0.60;;;18.10;99.90;;;;;;5032389;28;20663;-64
2021/10/01 12:26:38;;;;;;;2.57;0.80;;;18.00;99.90;;;;;;5032069;28;20190;-64
2021/10/01 12:29:13;;;;;;;4.53;0.87;;;18.10;99.90;;;;;;5031894;28;20313;-64
2021/10/01 12:31:43;;;;;;;2.77;0.70;;;18.10;99.90;;;;;;5031820;28;20681;-62
2021/10/01 12:34:17;;;;;;;2.93;0.63;;;18.10;99.90;;;;;;5031928;28;20263;-63
2021/10/01 12:36:47;;;;;;;4.13;1.00;;;18.00;99.90;;;;;;5031468;28;20214;-62
2021/10/01 12:39:14;;;;;;;1.80;0.60;;;18.00;99.90;;;;;;5031830;28;20234;-62
2021/10/01 12:41:41;;;;;;;1.90;0.67;;;18.10;99.90;;;;;;5031711;28;20687;-62
2021/10/01 12:44:11;;;;;;;2.53;0.70;;;18.20;99.90;;;;;;5030868;28;20799;-63
2021/10/01 12:46:43;;;;;;;2.47;0.63;;;18.20;99.90;;;;;;5031304;28;20686;-63
2021/10/01 12:49:19;;;;;;;4.83;0.60;;;18.30;99.90;;;;;;5031199;28;20648;-65
2021/10/01 12:52:00;;;;;;;3.00;0.60;;;18.50;99.90;;;;;;5031503;28;20587;-62
2021/10/01 12:54:28;;;;;;;1.60;0.80;;;18.30;99.90;;;;;;5031525;28;20210;-62
2021/10/01 12:57:13;;;;;;;4.33;0.70;;;18.30;99.90;;;;;;5031499;28;20210;-63
2021/10/01 12:59:41;;;;;;;1.57;0.83;;;18.40;99.90;;;;;;5031335;28;20237;-65
2021/10/01 13:02:11;;;;;;;5.07;0.90;;;18.50;99.90;;;;;;5031575;28;20206;-66
2021/10/01 13:04:49;;;;;;;5.03;0.80;;;18.20;99.90;;;;;;5031145;28;20619;-65
2021/10/01 13:07:34;;;;;;;3.60;0.90;;;18.10;99.90;;;;;;5031354;28;20237;-67
2021/10/01 13:10:17;;;;;;;1.83;0.57;;;18.10;99.90;;;;;;5031144;28;20216;-66
2021/10/01 13:12:47;;;;;;;3.73;0.87;;;17.90;99.90;;;;;;5031314;28;20238;-66
2021/10/01 13:15:17;;;;;;;4.90;1.10;;;17.90;99.90;;;;;;5030762;28;20226;-64
2021/10/01 13:17:59;;;;;;;2.93;0.90;;;17.90;99.90;;;;;;5031494;28;20229;-64
2021/10/01 13:20:27;;;;;;;1.73;0.73;;;17.90;99.90;;;;;;5030920;28;20280;-66
2021/10/01 13:23:06;;;;;;;2.00;0.80;;;18.00;99.90;;;;;;5031236;28;20236;-65
2021/10/01 13:25:35;;;;;;;2.43;0.67;;;18.10;99.90;;;;;;5030842;28;20209;-66
2021/10/01 13:28:03;;;;;;;3.30;0.80;;;18.20;99.90;;;;;;5031549;28;20230;-66
2021/10/01 13:30:29;;;;;;;4.47;0.80;;;18.20;99.90;;;;;;5030887;28;20261;-66
2021/10/01 13:32:57;;;;;;;4.00;0.93;;;18.20;99.90;;;;;;5031262;28;20202;-67
2021/10/01 13:35:24;;;;;;;3.67;0.67;;;18.30;99.90;;;;;;5030875;28;20226;-67
2021/10/01 13:37:51;;;;;;;2.93;0.80;;;18.20;99.90;;;;;;5030922;28;20754;-65
2021/10/01 13:40:20;;;;;;;2.03;0.90;;;18.10;99.90;;;;;;5030710;28;20206;-65
2021/10/01 13:42:47;;;;;;;2.47;0.70;;;18.10;99.90;;;;;;5031181;28;20218;-64
2021/10/01 13:45:14;;;;;;;2.97;0.77;;;17.90;99.90;;;;;;5029532;28;20210;-66
2021/10/01 13:47:41;;;;;;;3.03;0.80;;;17.80;99.90;;;;;;5031444;28;20202;-66
2021/10/01 13:50:10;;;;;;;2.23;0.53;;;17.80;99.90;;;;;;5030675;28;20264;-65
2021/10/01 13:52:38;;;;;;;2.30;0.80;;;17.80;99.90;;;;;;5031154;28;20210;-66
2021/10/01 13:55:06;;;;;;;2.07;0.80;;;17.80;99.90;;;;;;5031750;28;20245;-66
2021/10/01 13:57:34;;;;;;;1.97;0.70;;;17.80;99.90;;;;;;5035025;28;20667;-66
2021/10/01 14:00:01;;;;;;;5.30;0.87;;;17.80;99.90;;;;;;5034692;28;20210;-66
2021/10/01 14:02:28;;;;;;;5.07;0.90;;;18.00;99.90;;;;;;5035030;28;20214;-66
2021/10/01 14:04:55;;;;;;;3.20;1.10;;;18.00;99.90;;;;;;5034334;28;20576;-66
2021/10/01 14:07:21;;;;;;;2.27;0.90;;;18.10;99.90;;;;;;5034498;28;20659;-69
2021/10/01 14:09:48;;;;;;;3.23;0.70;;;17.90;99.90;;;;;;5034114;28;20304;-69
2021/10/01 14:12:15;;;;;;;2.00;0.83;;;18.00;99.90;;;;;;5034805;28;20283;-66
2021/10/01 14:14:43;;;;;;;2.17;1.10;;;18.00;99.90;;;;;;5034681;28;20302;-71
2021/10/01 14:17:10;;;;;;;2.30;0.73;;;18.00;99.90;;;;;;5034107;28;20242;-66
2021/10/01 14:19:37;;;;;;;3.60;0.87;;;17.90;99.90;;;;;;5034842;28;20647;-68
2021/10/01 14:22:04;;;;;;;3.40;0.83;;;17.90;99.90;;;;;;5034691;28;20225;-66
2021/10/01 14:24:33;;;;;;;2.37;0.70;;;18.00;99.90;;;;;;5034665;28;20284;-67
2021/10/01 14:27:00;;;;;;;3.53;0.80;;;18.00;99.90;;;;;;5034674;28;20279;-66
2021/10/01 14:29:27;;;;;;;2.80;0.83;;;18.00;99.90;;;;;;5033437;28;20235;-67
2021/10/01 14:31:55;;;;;;;1.93;0.77;;;17.90;99.90;;;;;;5034225;28;20728;-68